Diese Webseite verwendet Cookies

Wir verwenden Cookies, um Inhalte zu personalisieren und die Zugriffe auf unsere Website zu analysieren. Weitere Informationen finden Sie in unserer Datenschutzerklärung. Bitte bestätigen Sie, dass Sie mit der Verwendung von Cookies einverstanden sind.

▲ Details ausblenden

Cookies sind kleine Textdateien, die von Webseiten verwendet werden, um die Benutzererfahrung effizienter zu gestalten, bestimmte Funktionen bereitzustellen oder um bestimmte Auswertungen zu ermöglichen.

Laut Gesetz können wir Cookies auf Ihrem Gerät speichern, wenn diese für den Betrieb dieser Seite unbedingt notwendig sind. Für alle anderen Cookie-Typen benötigen wir Ihre Erlaubnis.

Diese Seite verwendet unterschiedliche Cookie-Typen. Einige Cookies werden von Drittparteien platziert, die auf unseren Seiten erscheinen.

Notwendig - Notwendige Cookies helfen dabei, unsere Webseite benutzbar zu machen, indem sie Grundfunktionen wie den Login ermöglichen. Die Webseite kann ohne diese Cookies nicht richtig funktionieren.

NameAnbieterZweckAblaufTyp
PHPSESSIDwww.staemme-statistik.deBenötigt für LoginSessionHTTP
cookieacceptwww.staemme-statistik.deSpeichert ihre hier gewählten Einstellungen1 JahrHTTP

Präferenzen - Präferenz-Cookies ermöglichen unserer Webseite, sich an Informationen zu erinnern, die Sie eingestellt haben. Zum Beispiel Ihren bevorzugten Lesemodus und Ihre gewählte Ansicht (Desktop oder Mobil).

NameAnbieterZweckAblaufTyp
merklisteIDwww.staemme-statistik.deZur Speicherung der Merkliste1 JahrHTTP

Statistiken - Statistik-Cookies helfen uns zu verstehen, wie Sie mit unserer Webseite interagieren und daraus Abläufe analysieren und verbessern zu können. Informationen werden selbstverständlich anonym gesammelt.

NameAnbieterZweckAblaufTyp
_gidgoogle-analytics.comGoogle Analytics Statistiken1 TagHTTP
_gagoogle-analytics.comGoogle Analytics Statistiken2 JahreHTTP

Marketing - Marketing-Cookies helfen uns, das Webseitenangebot und die Präsentation von Produkten und Dienstleistungen besser auf individuelle Interessen (Alter, Wohnort, ...) abzustimmen.

NameAnbieterZweckAblaufTyp
Wird aktuell nicht verwendet

Suchergebnis (ausblenden)

Letzte 100 Adelungen auf Welt DE204

Ansicht filtern: oder nur im Radius von   Feldern um mein Dorf:
Datum / UhrzeitWeltDorfPunktealter Besitzerneuer Besitzer
27.06.2022 07:10:02DE203Barbarendorf (688|585)1.965---cafe99999
27.06.2022 07:09:30DE201SDS (309|453)9.194danilowvDerHausmeister88
27.06.2022 07:09:01DE201Barbarendorf (669|627)1.409---Bruno88
27.06.2022 07:08:29CHP9Alles Izmir Wurst (428|615)7.303Izmir WurstxBaShyS
27.06.2022 07:08:03DE202Barbarendorf (447|434)1.868---Anker33
27.06.2022 07:07:39DE20312 Flötz )* (468|532)7.950IMPERATORMPLordDenethor
27.06.2022 07:07:36DE200Barbarendorf (411|699)340---lIzZ3L
27.06.2022 07:07:03DE203Barbarendorf (661|606)2.522---Kriewel
27.06.2022 07:06:46DE203Barbarendorf (357|370)2.521---grande6033
27.06.2022 07:06:30DE203FutureTimes Dorf (580|411)1.829FutureTimeHummiPeed
27.06.2022 07:05:19DE200S082 (367|406)10.134alex10109MissPresident
27.06.2022 07:05:10DE203Barbarendorf (426|366)2.522---Teparsan
27.06.2022 07:05:00CH66xBerishax (466|536)4.213xBerishaxNoggerlover17
27.06.2022 07:04:52CHP9Barbarendorf (382|421)253---alles bluna
27.06.2022 07:04:49DE203WirWarenMalStarss Dorf (383|500)1.023WirWarenMalStarsTulup23
27.06.2022 07:03:23DE203Barbarendorf (440|687)2.506---Totengraeber
27.06.2022 07:02:55DE203Zapogon Dorf West (375|504)3.475ZapogonTulup23
27.06.2022 07:01:11DE203Rage 04 (573|405)6.209kleineWaldfeesKiLeRiX
27.06.2022 07:01:04DE198lllllllllllllllllllllllllllllll (555|545)10.000ULT1M4T1VER H4RTZ3RCrowns
27.06.2022 07:00:53CH66Erlenbach (495|455)9.635yannkofAnfängerfänger
27.06.2022 06:59:19DE195Barbarendorf (638|357)77---*the killer*1
27.06.2022 06:58:51DE203Galway 04 (543|365)3.599HarryHole.shark.
27.06.2022 06:57:25DE1990057 (520|628)9.673CalungsodMaster Doku
27.06.2022 06:57:17DEP15Barbarendorf (477|288)6.780---König Astra
27.06.2022 06:54:39DE200Dom_062 (647|568)10.134dreckssau45Shooter
27.06.2022 06:54:37DE200Dom_102 (659|544)10.134dreckssau45Off-White Hipster
27.06.2022 06:54:15DE201coweteno.namozus Dorf 5 (515|285)208coweteno.namozuvoitl
27.06.2022 06:54:04DE202Barbarendorf (608|460)3.157---volker01
27.06.2022 06:54:02CH66Barbarendorf (555|505)513---feechen
27.06.2022 06:53:18DE203Barbarendorf (339|382)2.515---Mienos
27.06.2022 06:53:09DE201Sieger (613|504)10.109clsieger-*ExIt*-
27.06.2022 06:53:01CH65Icecream 005 (486|470)9.152Icecream-Activ.
27.06.2022 06:52:17DE203Barbarendorf (583|330)2.520---Mustang123
27.06.2022 06:52:00DE198-Kattas auf Minen- (500|494)10.000KATTAS AUF STOLLENgoatfarmer.
27.06.2022 06:51:26DE201Bonusdorf (286|481)48---Lokter
27.06.2022 06:50:33DE203Barbarendorf (648|563)6.043Ultima RatioImbaLanCe-
27.06.2022 06:50:24DE203033 | Ottomanen sind gemütlich (608|459)10.495Ottomaneare you scar7d?
27.06.2022 06:48:02DE200Ausguck (408|349)10.737SangolinJauchebomber
27.06.2022 06:47:39DEP14Kläranlage (384|271)9.751John-WickJohn-Wick
27.06.2022 06:45:11DE203Barbarendorf (327|423)2.588---HolyMoly09-
27.06.2022 06:44:38DEP15Barbarendorf (297|595)33---00-THOR-00
27.06.2022 06:44:31DE191Barbarendorf (474|622)10.495TikatikaTikatika
27.06.2022 06:44:10DE198Ibelin012 (622|459)10.019kingoftRiKul
27.06.2022 06:41:08DE202Barbarendorf (486|460)1.830---Spielsucht01
27.06.2022 06:40:54DEP15Barbarendorf (547|724)27---jungmichel
27.06.2022 06:40:31DEP15Barbarendorf (598|702)46Chris588nbasakum
27.06.2022 06:38:50DE20066:34:56 Arkon (646|635)9.737*Atlan*PASSI 70
27.06.2022 06:37:41DEP14Gaga052 (412|328)8.289Alex73Slasher
27.06.2022 06:37:25DE200From Malle with love (566|500)10.469Nuss1980Patti.
27.06.2022 06:37:17DE203Barbarendorf (316|429)2.503---phil26
27.06.2022 06:36:45DE198[046] llllllllllllllllllllllllll (479|568)10.160PokerfaceCommander Jesatori
27.06.2022 06:36:42DE191Barbarendorf (417|604)9.904sascha228LetItRoll
27.06.2022 06:36:24DE203Barbarendorf (519|687)1.077---saladin2
27.06.2022 06:34:41DE1990053 (521|629)9.899CalungsodMaster Doku
27.06.2022 06:34:19CH65Barbarendorf (502|554)9.856michi551Konstanz
27.06.2022 06:34:00DE202Bonusdorf (463|624)1.801---Lolinator74
27.06.2022 06:33:15DE1990055 (519|628)9.909CalungsodMaster Doku
27.06.2022 06:32:53CH65003 (477|542)9.550Pedi13Gerard der Barmherzige
27.06.2022 06:32:01DE203Barbarendorf (687|501)2.543--Cool----Cool--
27.06.2022 06:32:01DE203Barbarendorf (687|501)2.543-----Cool--
27.06.2022 06:31:37DEP15Barbarendorf (472|728)27---amigote
27.06.2022 06:29:58DE200+ F00 (652|513)12.128Shazar47Dua Lipa
27.06.2022 06:29:07DE203001_Rettenegg (323|537)3.818freeskiiheroNUVOK
27.06.2022 06:28:08DE202Barbarendorf (561|607)1.816---St. Rike
27.06.2022 06:27:48CH66Barbarendorf (467|549)501---friends
27.06.2022 06:27:22DE191Barbarendorf (631|601)9.763---Schluffi
27.06.2022 06:23:53CH6518 Unlucky (511|531)9.650saesh96Ljewin
27.06.2022 06:23:37CH6654:19:66 - YaKuZzA (496|516)9.789CammelotxBaShyS
27.06.2022 06:22:42DE203049 | Ottomanen sind gemütlich (617|448)10.495Ottomaneare you scar7d?
27.06.2022 06:22:23DE191Barbarendorf (423|603)9.805---LetItRoll
27.06.2022 06:22:20DEP14Gaga346 (413|264)8.410Alex73mikethehammer
27.06.2022 06:21:26DE203Barbarendorf (353|400)2.510---Aff3mitWaff3
27.06.2022 06:21:17DE200S016 (369|406)10.628alex10109MissPresident
27.06.2022 06:21:09DE191Barbarendorf (509|700)10.000---sevenup
27.06.2022 06:20:24DE203Barbarendorf (684|428)2.498---ema54
27.06.2022 06:19:50DE203Meins[003] (565|327)7.040Mr. White M.VictorinoX
27.06.2022 06:18:53DE203Barbarendorf (572|688)1.439---elektriix92
27.06.2022 06:17:49DE19934:56:86 Undercover AG (358|466)10.787Mevotorti0111
27.06.2022 06:17:41DE191Barbarendorf (405|599)9.904---sascha228
27.06.2022 06:16:16DE203Barbarendorf (577|660)1.564---titty
27.06.2022 06:16:08DE200415|465 Gemüseplantage (415|465)9.699AuslogggemüseJAVVV
27.06.2022 06:15:57DE203eism (480|503)7.226eismKingDavies19
27.06.2022 06:15:05DE201F4TAL1tYs Dorf (306|545)2.656F4TAL1tYSannemann81
27.06.2022 06:15:04DEP15Barbarendorf (523|326)10.000---nomellis
27.06.2022 06:14:39DE202Barbarendorf (426|447)4.466---abonoah
27.06.2022 06:12:28DE202Barbarendorf (444|607)1.827---Lordeckl
27.06.2022 06:10:44DE191Barbarendorf (418|601)9.827---sascha228
27.06.2022 06:09:19CH65KALAJA23 (493|500)8.348FisenikLaFaMiLiAsP
27.06.2022 06:09:05DE200094 -True Passion- (434|624)9.960Sigurd der StarkeDumbstar
27.06.2022 06:09:00DE198lllllllllllllllllllllllllllllll (548|543)9.464ULT1M4T1VER H4RTZ3RCrowns
27.06.2022 06:08:31DE201SDS (322|450)9.206danilowvDerHausmeister88
27.06.2022 06:07:17DEP15Barbarendorf (462|272)32---sam11
27.06.2022 06:07:13DE203--Wallenstein-- (520|525)1.188--Wallenstein--Gustav Gans
27.06.2022 06:07:12DE203Barbarendorf (294|495)541---Sabretooth
27.06.2022 06:06:26DE203Yamato (370|463)5.781IL0veTr4insTRexo88
27.06.2022 06:06:16DEP15Barbarendorf (422|295)6.705---Kann nicht spielen
27.06.2022 06:05:52DEP15Barbarendorf (571|714)32---Chaos1999
27.06.2022 06:05:23DEP14##6 (441|651)9.852Silverwolf994jaguar666
27.06.2022 06:05:17DE201Barbarendorf (376|678)1.335---Felicee91
27.06.2022 06:05:02DE198.:Norhern Light:. (497|422)11.078Gorby 1Aggro Pingu